sensor_id;sensor_type;location;lat;lon;timestamp;P1;durP1;ratioP1;P2;durP2;ratioP2
13469;SDS011;6807;48.682;9.032;2023-05-21T00:01:41;16.02;;;13.38;;
13469;SDS011;6807;48.682;9.032;2023-05-21T00:04:09;17.58;;;13.57;;
13469;SDS011;6807;48.682;9.032;2023-05-21T00:06:37;17.17;;;13.05;;
13469;SDS011;6807;48.682;9.032;2023-05-21T00:09:04;15.30;;;13.73;;
13469;SDS011;6807;48.682;9.032;2023-05-21T00:11:31;15.63;;;14.00;;
13469;SDS011;6807;48.682;9.032;2023-05-21T00:13:59;15.68;;;13.98;;
13469;SDS011;6807;48.682;9.032;2023-05-21T00:16:27;16.05;;;14.35;;
13469;SDS011;6807;48.682;9.032;2023-05-21T00:18:54;18.00;;;14.13;;
13469;SDS011;6807;48.682;9.032;2023-05-21T00:21:22;18.17;;;14.98;;
13469;SDS011;6807;48.682;9.032;2023-05-21T00:23:50;16.90;;;14.60;;
13469;SDS011;6807;48.682;9.032;2023-05-21T00:26:18;16.70;;;13.52;;
13469;SDS011;6807;48.682;9.032;2023-05-21T00:28:45;19.77;;;15.65;;
13469;SDS011;6807;48.682;9.032;2023-05-21T00:31:12;16.63;;;14.82;;
13469;SDS011;6807;48.682;9.032;2023-05-21T00:33:41;18.02;;;14.52;;
13469;SDS011;6807;48.682;9.032;2023-05-21T00:36:08;19.23;;;14.95;;
13469;SDS011;6807;48.682;9.032;2023-05-21T00:38:38;21.80;;;14.85;;
13469;SDS011;6807;48.682;9.032;2023-05-21T00:41:07;20.10;;;14.60;;
13469;SDS011;6807;48.682;9.032;2023-05-21T00:43:35;17.65;;;14.93;;
13469;SDS011;6807;48.682;9.032;2023-05-21T00:46:04;22.55;;;15.13;;
13469;SDS011;6807;48.682;9.032;2023-05-21T00:48:32;16.45;;;14.48;;
13469;SDS011;6807;48.682;9.032;2023-05-21T00:51:01;20.23;;;15.13;;
13469;SDS011;6807;48.682;9.032;2023-05-21T00:53:29;20.25;;;14.25;;
13469;SDS011;6807;48.682;9.032;2023-05-21T00:55:59;19.83;;;15.75;;
13469;SDS011;6807;48.682;9.032;2023-05-21T00:58:26;22.45;;;15.82;;
13469;SDS011;6807;48.682;9.032;2023-05-21T01:00:54;19.20;;;15.23;;
13469;SDS011;6807;48.682;9.032;2023-05-21T01:03:21;19.20;;;14.68;;
13469;SDS011;6807;48.682;9.032;2023-05-21T01:05:49;20.05;;;15.18;;
13469;SDS011;6807;48.682;9.032;2023-05-21T01:08:19;18.48;;;13.73;;
13469;SDS011;6807;48.682;9.032;2023-05-21T01:10:47;18.17;;;14.93;;
13469;SDS011;6807;48.682;9.032;2023-05-21T01:13:14;20.55;;;14.73;;
13469;SDS011;6807;48.682;9.032;2023-05-21T01:15:42;15.98;;;13.82;;
13469;SDS011;6807;48.682;9.032;2023-05-21T01:18:10;20.10;;;14.43;;
13469;SDS011;6807;48.682;9.032;2023-05-21T01:20:38;17.75;;;14.40;;
13469;SDS011;6807;48.682;9.032;2023-05-21T01:23:07;24.25;;;13.68;;
13469;SDS011;6807;48.682;9.032;2023-05-21T01:25:35;20.55;;;14.40;;
13469;SDS011;6807;48.682;9.032;2023-05-21T01:28:02;20.98;;;14.50;;
13469;SDS011;6807;48.682;9.032;2023-05-21T01:30:29;17.75;;;13.85;;
13469;SDS011;6807;48.682;9.032;2023-05-21T01:32:59;17.30;;;14.15;;
13469;SDS011;6807;48.682;9.032;2023-05-21T01:35:29;19.50;;;13.55;;
13469;SDS011;6807;48.682;9.032;2023-05-21T01:37:58;17.83;;;14.25;;
13469;SDS011;6807;48.682;9.032;2023-05-21T01:40:33;20.95;;;14.25;;
13469;SDS011;6807;48.682;9.032;2023-05-21T01:43:02;16.92;;;13.48;;
13469;SDS011;6807;48.682;9.032;2023-05-21T01:45:31;19.08;;;14.93;;
13469;SDS011;6807;48.682;9.032;2023-05-21T01:47:59;16.35;;;13.70;;
13469;SDS011;6807;48.682;9.032;2023-05-21T01:50:28;17.92;;;14.25;;
13469;SDS011;6807;48.682;9.032;2023-05-21T01:52:56;16.13;;;13.13;;
13469;SDS011;6807;48.682;9.032;2023-05-21T01:55:25;17.17;;;14.68;;
13469;SDS011;6807;48.682;9.032;2023-05-21T01:57:56;18.58;;;14.23;;
13469;SDS011;6807;48.682;9.032;2023-05-21T02:00:24;17.00;;;14.38;;
13469;SDS011;6807;48.682;9.032;2023-05-21T02:02:53;19.02;;;14.60;;
13469;SDS011;6807;48.682;9.032;2023-05-21T02:05:20;19.08;;;15.30;;
13469;SDS011;6807;48.682;9.032;2023-05-21T02:07:49;18.90;;;14.60;;
13469;SDS011;6807;48.682;9.032;2023-05-21T02:10:16;22.35;;;16.05;;
13469;SDS011;6807;48.682;9.032;2023-05-21T02:12:44;18.08;;;14.85;;
13469;SDS011;6807;48.682;9.032;2023-05-21T02:15:12;20.15;;;16.35;;
13469;SDS011;6807;48.682;9.032;2023-05-21T02:17:42;19.65;;;15.70;;
13469;SDS011;6807;48.682;9.032;2023-05-21T02:20:09;20.27;;;14.35;;
13469;SDS011;6807;48.682;9.032;2023-05-21T02:22:37;18.45;;;14.98;;
13469;SDS011;6807;48.682;9.032;2023-05-21T02:25:05;20.40;;;16.35;;
13469;SDS011;6807;48.682;9.032;2023-05-21T02:27:33;18.30;;;15.43;;
13469;SDS011;6807;48.682;9.032;2023-05-21T02:30:01;19.45;;;15.32;;
13469;SDS011;6807;48.682;9.032;2023-05-21T02:32:30;19.83;;;15.55;;
13469;SDS011;6807;48.682;9.032;2023-05-21T02:34:58;20.70;;;15.07;;
13469;SDS011;6807;48.682;9.032;2023-05-21T02:37:25;20.55;;;16.65;;
13469;SDS011;6807;48.682;9.032;2023-05-21T02:39:53;20.40;;;16.65;;
13469;SDS011;6807;48.682;9.032;2023-05-21T02:42:20;19.88;;;15.30;;
13469;SDS011;6807;48.682;9.032;2023-05-21T02:44:47;19.90;;;15.55;;
13469;SDS011;6807;48.682;9.032;2023-05-21T02:47:15;18.52;;;15.55;;
13469;SDS011;6807;48.682;9.032;2023-05-21T02:49:44;23.35;;;16.58;;
13469;SDS011;6807;48.682;9.032;2023-05-21T02:52:11;22.17;;;16.08;;
13469;SDS011;6807;48.682;9.032;2023-05-21T02:54:38;20.60;;;16.30;;
13469;SDS011;6807;48.682;9.032;2023-05-21T02:57:06;20.20;;;16.23;;
13469;SDS011;6807;48.682;9.032;2023-05-21T02:59:33;20.70;;;16.30;;
13469;SDS011;6807;48.682;9.032;2023-05-21T03:02:00;22.38;;;17.08;;
13469;SDS011;6807;48.682;9.032;2023-05-21T03:04:28;19.63;;;15.70;;
13469;SDS011;6807;48.682;9.032;2023-05-21T03:06:58;21.70;;;17.00;;
13469;SDS011;6807;48.682;9.032;2023-05-21T03:09:26;20.30;;;16.58;;
13469;SDS011;6807;48.682;9.032;2023-05-21T03:11:53;20.83;;;16.33;;
13469;SDS011;6807;48.682;9.032;2023-05-21T03:14:21;20.48;;;16.38;;
13469;SDS011;6807;48.682;9.032;2023-05-21T03:16:49;23.25;;;16.63;;
13469;SDS011;6807;48.682;9.032;2023-05-21T03:19:16;22.83;;;16.80;;
13469;SDS011;6807;48.682;9.032;2023-05-21T03:21:44;22.75;;;17.00;;
13469;SDS011;6807;48.682;9.032;2023-05-21T03:24:14;19.77;;;16.48;;
13469;SDS011;6807;48.682;9.032;2023-05-21T03:26:41;24.50;;;16.88;;
13469;SDS011;6807;48.682;9.032;2023-05-21T03:29:09;22.73;;;17.75;;
13469;SDS011;6807;48.682;9.032;2023-05-21T03:31:36;22.60;;;17.35;;
13469;SDS011;6807;48.682;9.032;2023-05-21T03:34:03;22.15;;;17.35;;
13469;SDS011;6807;48.682;9.032;2023-05-21T03:36:32;22.17;;;17.73;;
13469;SDS011;6807;48.682;9.032;2023-05-21T03:39:00;24.35;;;17.80;;
13469;SDS011;6807;48.682;9.032;2023-05-21T03:41:29;22.27;;;17.73;;
13469;SDS011;6807;48.682;9.032;2023-05-21T03:43:56;25.02;;;18.20;;
13469;SDS011;6807;48.682;9.032;2023-05-21T03:46:23;22.98;;;17.83;;
13469;SDS011;6807;48.682;9.032;2023-05-21T03:48:50;23.15;;;17.30;;
13469;SDS011;6807;48.682;9.032;2023-05-21T03:51:17;22.67;;;18.13;;
13469;SDS011;6807;48.682;9.032;2023-05-21T03:53:45;24.50;;;18.30;;
13469;SDS011;6807;48.682;9.032;2023-05-21T03:56:12;23.52;;;18.92;;
13469;SDS011;6807;48.682;9.032;2023-05-21T03:58:40;24.50;;;19.63;;
13469;SDS011;6807;48.682;9.032;2023-05-21T04:01:07;23.23;;;18.63;;
13469;SDS011;6807;48.682;9.032;2023-05-21T04:03:35;22.85;;;18.73;;
13469;SDS011;6807;48.682;9.032;2023-05-21T04:06:02;23.63;;;18.30;;
13469;SDS011;6807;48.682;9.032;2023-05-21T04:08:30;22.98;;;19.15;;
13469;SDS011;6807;48.682;9.032;2023-05-21T04:10:57;26.65;;;20.00;;
13469;SDS011;6807;48.682;9.032;2023-05-21T04:13:24;25.27;;;18.45;;
13469;SDS011;6807;48.682;9.032;2023-05-21T04:15:53;24.67;;;19.95;;
13469;SDS011;6807;48.682;9.032;2023-05-21T04:18:20;24.40;;;19.17;;
13469;SDS011;6807;48.682;9.032;2023-05-21T04:20:49;24.67;;;18.95;;
13469;SDS011;6807;48.682;9.032;2023-05-21T04:23:17;25.40;;;19.13;;
13469;SDS011;6807;48.682;9.032;2023-05-21T04:25:47;23.58;;;19.38;;
13469;SDS011;6807;48.682;9.032;2023-05-21T04:28:14;26.70;;;19.52;;
13469;SDS011;6807;48.682;9.032;2023-05-21T04:30:44;22.40;;;18.20;;
13469;SDS011;6807;48.682;9.032;2023-05-21T04:33:13;25.00;;;19.67;;
13469;SDS011;6807;48.682;9.032;2023-05-21T04:35:42;24.63;;;18.95;;
13469;SDS011;6807;48.682;9.032;2023-05-21T04:38:11;22.17;;;18.48;;
13469;SDS011;6807;48.682;9.032;2023-05-21T04:40:38;23.55;;;18.40;;
13469;SDS011;6807;48.682;9.032;2023-05-21T04:43:05;22.50;;;18.38;;
13469;SDS011;6807;48.682;9.032;2023-05-21T04:45:33;22.50;;;19.27;;
13469;SDS011;6807;48.682;9.032;2023-05-21T04:48:00;24.80;;;19.25;;
13469;SDS011;6807;48.682;9.032;2023-05-21T04:50:29;24.40;;;18.45;;
13469;SDS011;6807;48.682;9.032;2023-05-21T04:52:56;23.38;;;19.27;;
13469;SDS011;6807;48.682;9.032;2023-05-21T04:55:24;21.23;;;18.92;;
13469;SDS011;6807;48.682;9.032;2023-05-21T04:57:51;25.10;;;19.45;;
13469;SDS011;6807;48.682;9.032;2023-05-21T05:00:18;23.92;;;19.83;;
13469;SDS011;6807;48.682;9.032;2023-05-21T05:02:46;23.00;;;19.40;;
13469;SDS011;6807;48.682;9.032;2023-05-21T05:05:13;22.30;;;18.75;;
13469;SDS011;6807;48.682;9.032;2023-05-21T05:07:42;23.65;;;18.02;;
13469;SDS011;6807;48.682;9.032;2023-05-21T05:10:09;21.83;;;18.05;;
13469;SDS011;6807;48.682;9.032;2023-05-21T05:12:36;23.20;;;19.38;;
13469;SDS011;6807;48.682;9.032;2023-05-21T05:15:03;22.85;;;19.05;;
13469;SDS011;6807;48.682;9.032;2023-05-21T05:17:31;22.70;;;18.90;;
13469;SDS011;6807;48.682;9.032;2023-05-21T05:19:58;21.83;;;18.67;;
13469;SDS011;6807;48.682;9.032;2023-05-21T05:22:25;22.40;;;18.42;;
13469;SDS011;6807;48.682;9.032;2023-05-21T05:24:54;21.08;;;18.73;;
13469;SDS011;6807;48.682;9.032;2023-05-21T05:27:21;23.13;;;18.92;;
13469;SDS011;6807;48.682;9.032;2023-05-21T05:29:48;20.75;;;17.55;;
13469;SDS011;6807;48.682;9.032;2023-05-21T05:32:15;24.20;;;19.38;;
13469;SDS011;6807;48.682;9.032;2023-05-21T05:34:44;22.63;;;19.42;;
13469;SDS011;6807;48.682;9.032;2023-05-21T05:37:11;22.98;;;18.40;;
13469;SDS011;6807;48.682;9.032;2023-05-21T05:39:38;22.05;;;19.13;;
13469;SDS011;6807;48.682;9.032;2023-05-21T05:42:07;21.23;;;17.65;;
13469;SDS011;6807;48.682;9.032;2023-05-21T05:44:34;21.50;;;17.92;;
13469;SDS011;6807;48.682;9.032;2023-05-21T05:47:01;22.00;;;18.73;;
13469;SDS011;6807;48.682;9.032;2023-05-21T05:49:33;21.00;;;17.85;;
13469;SDS011;6807;48.682;9.032;2023-05-21T05:52:00;22.75;;;19.02;;
13469;SDS011;6807;48.682;9.032;2023-05-21T05:54:27;21.15;;;18.70;;
13469;SDS011;6807;48.682;9.032;2023-05-21T05:56:54;22.63;;;17.98;;
13469;SDS011;6807;48.682;9.032;2023-05-21T05:59:23;21.13;;;17.10;;
13469;SDS011;6807;48.682;9.032;2023-05-21T06:01:50;21.27;;;18.67;;
13469;SDS011;6807;48.682;9.032;2023-05-21T06:04:17;23.50;;;18.33;;
13469;SDS011;6807;48.682;9.032;2023-05-21T06:06:44;20.73;;;17.15;;
13469;SDS011;6807;48.682;9.032;2023-05-21T06:09:12;18.90;;;16.58;;
13469;SDS011;6807;48.682;9.032;2023-05-21T06:11:39;20.70;;;17.60;;
13469;SDS011;6807;48.682;9.032;2023-05-21T06:14:06;22.25;;;17.02;;
13469;SDS011;6807;48.682;9.032;2023-05-21T06:16:35;22.65;;;18.80;;
13469;SDS011;6807;48.682;9.032;2023-05-21T06:19:02;18.90;;;16.77;;
13469;SDS011;6807;48.682;9.032;2023-05-21T06:21:29;19.55;;;16.35;;
13469;SDS011;6807;48.682;9.032;2023-05-21T06:23:56;18.70;;;16.48;;
13469;SDS011;6807;48.682;9.032;2023-05-21T06:26:23;18.45;;;16.55;;
13469;SDS011;6807;48.682;9.032;2023-05-21T06:28:50;20.30;;;16.58;;
13469;SDS011;6807;48.682;9.032;2023-05-21T06:31:17;18.05;;;15.80;;
13469;SDS011;6807;48.682;9.032;2023-05-21T06:33:47;24.98;;;16.50;;
13469;SDS011;6807;48.682;9.032;2023-05-21T06:36:15;20.55;;;18.38;;
13469;SDS011;6807;48.682;9.032;2023-05-21T06:38:42;19.67;;;16.85;;
13469;SDS011;6807;48.682;9.032;2023-05-21T06:41:09;21.02;;;15.98;;
13469;SDS011;6807;48.682;9.032;2023-05-21T06:43:36;16.77;;;15.05;;
13469;SDS011;6807;48.682;9.032;2023-05-21T06:46:03;17.30;;;15.10;;
13469;SDS011;6807;48.682;9.032;2023-05-21T06:48:30;16.80;;;14.60;;
13469;SDS011;6807;48.682;9.032;2023-05-21T06:50:59;17.92;;;15.25;;
13469;SDS011;6807;48.682;9.032;2023-05-21T06:53:26;17.88;;;14.48;;
13469;SDS011;6807;48.682;9.032;2023-05-21T06:55:54;15.70;;;14.00;;
13469;SDS011;6807;48.682;9.032;2023-05-21T06:58:21;20.77;;;15.70;;
13469;SDS011;6807;48.682;9.032;2023-05-21T07:00:48;19.08;;;15.77;;
13469;SDS011;6807;48.682;9.032;2023-05-21T07:03:15;16.25;;;14.55;;
13469;SDS011;6807;48.682;9.032;2023-05-21T07:05:43;16.98;;;13.75;;
13469;SDS011;6807;48.682;9.032;2023-05-21T07:08:11;14.35;;;12.77;;
13469;SDS011;6807;48.682;9.032;2023-05-21T07:10:39;14.40;;;12.65;;
13469;SDS011;6807;48.682;9.032;2023-05-21T07:13:06;14.32;;;12.77;;
13469;SDS011;6807;48.682;9.032;2023-05-21T07:15:33;14.70;;;13.15;;
13469;SDS011;6807;48.682;9.032;2023-05-21T07:18:00;13.52;;;12.00;;
13469;SDS011;6807;48.682;9.032;2023-05-21T07:20:28;12.85;;;11.60;;
13469;SDS011;6807;48.682;9.032;2023-05-21T07:22:55;13.00;;;11.35;;
13469;SDS011;6807;48.682;9.032;2023-05-21T07:25:24;12.65;;;10.60;;
13469;SDS011;6807;48.682;9.032;2023-05-21T07:27:51;12.02;;;9.95;;
13469;SDS011;6807;48.682;9.032;2023-05-21T07:30:19;11.40;;;10.20;;
13469;SDS011;6807;48.682;9.032;2023-05-21T07:32:47;10.65;;;9.65;;
13469;SDS011;6807;48.682;9.032;2023-05-21T07:35:14;11.02;;;9.30;;
13469;SDS011;6807;48.682;9.032;2023-05-21T07:37:41;10.32;;;9.32;;
13469;SDS011;6807;48.682;9.032;2023-05-21T07:40:09;10.55;;;9.32;;
13469;SDS011;6807;48.682;9.032;2023-05-21T07:42:39;9.57;;;8.63;;
13469;SDS011;6807;48.682;9.032;2023-05-21T07:45:06;10.63;;;9.27;;
13469;SDS011;6807;48.682;9.032;2023-05-21T07:47:34;12.32;;;9.35;;
13469;SDS011;6807;48.682;9.032;2023-05-21T07:50:01;10.55;;;9.55;;
13469;SDS011;6807;48.682;9.032;2023-05-21T07:52:28;11.73;;;9.30;;
13469;SDS011;6807;48.682;9.032;2023-05-21T07:54:55;10.68;;;9.57;;
13469;SDS011;6807;48.682;9.032;2023-05-21T07:57:22;10.57;;;9.40;;
13469;SDS011;6807;48.682;9.032;2023-05-21T07:59:51;11.38;;;10.18;;
13469;SDS011;6807;48.682;9.032;2023-05-21T08:02:18;10.32;;;9.20;;
13469;SDS011;6807;48.682;9.032;2023-05-21T08:04:45;10.32;;;9.32;;
13469;SDS011;6807;48.682;9.032;2023-05-21T08:07:12;9.15;;;8.20;;
13469;SDS011;6807;48.682;9.032;2023-05-21T08:09:43;10.32;;;9.15;;
13469;SDS011;6807;48.682;9.032;2023-05-21T08:12:11;9.57;;;8.65;;
13469;SDS011;6807;48.682;9.032;2023-05-21T08:14:40;9.40;;;8.50;;
13469;SDS011;6807;48.682;9.032;2023-05-21T08:17:09;10.00;;;8.52;;
13469;SDS011;6807;48.682;9.032;2023-05-21T08:19:36;8.70;;;7.80;;
13469;SDS011;6807;48.682;9.032;2023-05-21T08:22:03;8.93;;;8.00;;
13469;SDS011;6807;48.682;9.032;2023-05-21T08:24:31;10.45;;;8.77;;
13469;SDS011;6807;48.682;9.032;2023-05-21T08:26:59;8.80;;;7.95;;
13469;SDS011;6807;48.682;9.032;2023-05-21T08:29:26;8.55;;;7.75;;
13469;SDS011;6807;48.682;9.032;2023-05-21T08:31:53;10.60;;;8.88;;
13469;SDS011;6807;48.682;9.032;2023-05-21T08:34:21;10.57;;;8.45;;
13469;SDS011;6807;48.682;9.032;2023-05-21T08:36:49;11.60;;;8.88;;
13469;SDS011;6807;48.682;9.032;2023-05-21T08:39:17;8.85;;;8.05;;
13469;SDS011;6807;48.682;9.032;2023-05-21T08:41:44;9.38;;;8.38;;
13469;SDS011;6807;48.682;9.032;2023-05-21T08:44:17;8.55;;;7.65;;
13469;SDS011;6807;48.682;9.032;2023-05-21T08:46:48;9.65;;;8.65;;
13469;SDS011;6807;48.682;9.032;2023-05-21T08:49:16;9.60;;;8.65;;
13469;SDS011;6807;48.682;9.032;2023-05-21T08:51:47;10.18;;;9.18;;
13469;SDS011;6807;48.682;9.032;2023-05-21T08:54:15;9.52;;;8.63;;
13469;SDS011;6807;48.682;9.032;2023-05-21T08:56:42;9.90;;;8.18;;
13469;SDS011;6807;48.682;9.032;2023-05-21T08:59:11;10.60;;;8.15;;
13469;SDS011;6807;48.682;9.032;2023-05-21T09:01:39;9.90;;;8.95;;
13469;SDS011;6807;48.682;9.032;2023-05-21T09:04:07;9.38;;;8.23;;
13469;SDS011;6807;48.682;9.032;2023-05-21T09:06:36;11.18;;;8.65;;
13469;SDS011;6807;48.682;9.032;2023-05-21T09:09:05;10.85;;;9.85;;
13469;SDS011;6807;48.682;9.032;2023-05-21T09:11:39;8.05;;;7.30;;
13469;SDS011;6807;48.682;9.032;2023-05-21T09:14:07;10.52;;;9.00;;
13469;SDS011;6807;48.682;9.032;2023-05-21T09:16:37;13.00;;;9.45;;
13469;SDS011;6807;48.682;9.032;2023-05-21T09:19:04;9.95;;;8.23;;
13469;SDS011;6807;48.682;9.032;2023-05-21T09:21:31;9.73;;;8.45;;
13469;SDS011;6807;48.682;9.032;2023-05-21T09:23:58;10.60;;;8.75;;
13469;SDS011;6807;48.682;9.032;2023-05-21T09:26:27;8.85;;;8.05;;
13469;SDS011;6807;48.682;9.032;2023-05-21T09:28:55;9.75;;;8.60;;
13469;SDS011;6807;48.682;9.032;2023-05-21T09:31:33;10.27;;;9.25;;
13469;SDS011;6807;48.682;9.032;2023-05-21T09:34:00;9.40;;;8.50;;
13469;SDS011;6807;48.682;9.032;2023-05-21T09:36:28;9.32;;;8.30;;
13469;SDS011;6807;48.682;9.032;2023-05-21T09:38:55;9.73;;;8.25;;
13469;SDS011;6807;48.682;9.032;2023-05-21T09:41:31;10.65;;;8.43;;
13469;SDS011;6807;48.682;9.032;2023-05-21T09:43:59;8.18;;;7.38;;
13469;SDS011;6807;48.682;9.032;2023-05-21T09:46:27;9.60;;;8.25;;
13469;SDS011;6807;48.682;9.032;2023-05-21T09:49:04;9.65;;;8.65;;
13469;SDS011;6807;48.682;9.032;2023-05-21T09:51:31;9.93;;;8.68;;
13469;SDS011;6807;48.682;9.032;2023-05-21T09:53:58;11.00;;;8.63;;
13469;SDS011;6807;48.682;9.032;2023-05-21T09:56:26;9.75;;;8.73;;
13469;SDS011;6807;48.682;9.032;2023-05-21T09:58:58;10.55;;;8.77;;
13469;SDS011;6807;48.682;9.032;2023-05-21T10:01:29;9.50;;;8.60;;
13469;SDS011;6807;48.682;9.032;2023-05-21T10:03:58;9.80;;;8.80;;
13469;SDS011;6807;48.682;9.032;2023-05-21T10:06:28;10.13;;;9.13;;
13469;SDS011;6807;48.682;9.032;2023-05-21T10:08:56;10.95;;;9.50;;
13469;SDS011;6807;48.682;9.032;2023-05-21T10:11:25;9.95;;;9.05;;
13469;SDS011;6807;48.682;9.032;2023-05-21T10:13:59;9.73;;;8.73;;
13469;SDS011;6807;48.682;9.032;2023-05-21T10:16:31;11.23;;;9.35;;
13469;SDS011;6807;48.682;9.032;2023-05-21T10:18:59;10.63;;;9.18;;
13469;SDS011;6807;48.682;9.032;2023-05-21T10:21:28;8.95;;;8.05;;
13469;SDS011;6807;48.682;9.032;2023-05-21T10:23:57;10.38;;;9.27;;
13469;SDS011;6807;48.682;9.032;2023-05-21T10:26:27;10.85;;;9.18;;
13469;SDS011;6807;48.682;9.032;2023-05-21T10:28:55;12.13;;;9.52;;
13469;SDS011;6807;48.682;9.032;2023-05-21T10:31:25;10.15;;;9.15;;
13469;SDS011;6807;48.682;9.032;2023-05-21T10:33:52;10.10;;;9.10;;
13469;SDS011;6807;48.682;9.032;2023-05-21T10:36:20;11.75;;;9.50;;
13469;SDS011;6807;48.682;9.032;2023-05-21T10:38:49;9.85;;;8.85;;
13469;SDS011;6807;48.682;9.032;2023-05-21T10:41:17;10.50;;;9.40;;
13469;SDS011;6807;48.682;9.032;2023-05-21T10:43:51;11.13;;;9.52;;
13469;SDS011;6807;48.682;9.032;2023-05-21T10:46:34;10.25;;;8.77;;
13469;SDS011;6807;48.682;9.032;2023-05-21T10:55:21;9.15;;;8.20;;
13469;SDS011;6807;48.682;9.032;2023-05-21T11:00:59;9.55;;;8.55;;
13469;SDS011;6807;48.682;9.032;2023-05-21T11:03:28;8.98;;;7.95;;
13469;SDS011;6807;48.682;9.032;2023-05-21T11:05:57;8.43;;;7.50;;
13469;SDS011;6807;48.682;9.032;2023-05-21T11:08:25;9.35;;;8.52;;
13469;SDS011;6807;48.682;9.032;2023-05-21T11:10:54;8.80;;;7.95;;
13469;SDS011;6807;48.682;9.032;2023-05-21T11:13:23;9.27;;;8.40;;
13469;SDS011;6807;48.682;9.032;2023-05-21T11:16:02;8.70;;;7.72;;
13469;SDS011;6807;48.682;9.032;2023-05-21T11:18:55;9.40;;;8.48;;
13469;SDS011;6807;48.682;9.032;2023-05-21T11:21:27;9.55;;;8.55;;
13469;SDS011;6807;48.682;9.032;2023-05-21T11:23:57;11.65;;;9.02;;
13469;SDS011;6807;48.682;9.032;2023-05-21T11:26:29;12.55;;;8.55;;
13469;SDS011;6807;48.682;9.032;2023-05-21T11:29:38;9.32;;;8.10;;
13469;SDS011;6807;48.682;9.032;2023-05-21T11:32:10;9.02;;;8.13;;
13469;SDS011;6807;48.682;9.032;2023-05-21T11:34:40;8.80;;;7.90;;
13469;SDS011;6807;48.682;9.032;2023-05-21T11:37:29;10.13;;;7.88;;
13469;SDS011;6807;48.682;9.032;2023-05-21T11:42:50;8.30;;;6.80;;
13469;SDS011;6807;48.682;9.032;2023-05-21T11:45:18;8.00;;;6.97;;
13469;SDS011;6807;48.682;9.032;2023-05-21T11:47:48;8.05;;;6.82;;
13469;SDS011;6807;48.682;9.032;2023-05-21T11:50:17;7.13;;;6.50;;
13469;SDS011;6807;48.682;9.032;2023-05-21T11:52:44;7.85;;;6.65;;
13469;SDS011;6807;48.682;9.032;2023-05-21T11:55:12;7.13;;;6.43;;
13469;SDS011;6807;48.682;9.032;2023-05-21T11:57:41;7.47;;;6.68;;
13469;SDS011;6807;48.682;9.032;2023-05-21T12:00:12;7.18;;;6.35;;
13469;SDS011;6807;48.682;9.032;2023-05-21T12:02:44;9.43;;;7.25;;
13469;SDS011;6807;48.682;9.032;2023-05-21T12:05:14;8.70;;;6.78;;
13469;SDS011;6807;48.682;9.032;2023-05-21T12:07:41;7.70;;;6.90;;
13469;SDS011;6807;48.682;9.032;2023-05-21T12:10:13;7.35;;;6.63;;
13469;SDS011;6807;48.682;9.032;2023-05-21T12:12:41;7.53;;;6.82;;
13469;SDS011;6807;48.682;9.032;2023-05-21T12:15:08;7.20;;;6.47;;
13469;SDS011;6807;48.682;9.032;2023-05-21T12:17:37;7.18;;;6.50;;
13469;SDS011;6807;48.682;9.032;2023-05-21T12:20:04;7.55;;;6.70;;
13469;SDS011;6807;48.682;9.032;2023-05-21T12:22:36;9.32;;;6.60;;
13469;SDS011;6807;48.682;9.032;2023-05-21T12:25:08;10.95;;;6.88;;
13469;SDS011;6807;48.682;9.032;2023-05-21T12:27:36;9.13;;;6.72;;
13469;SDS011;6807;48.682;9.032;2023-05-21T12:30:03;8.80;;;6.95;;
13469;SDS011;6807;48.682;9.032;2023-05-21T12:32:32;7.70;;;7.00;;
13469;SDS011;6807;48.682;9.032;2023-05-21T12:34:59;7.22;;;6.57;;
13469;SDS011;6807;48.682;9.032;2023-05-21T12:37:27;7.95;;;7.15;;
13469;SDS011;6807;48.682;9.032;2023-05-21T12:39:58;8.50;;;7.38;;
13469;SDS011;6807;48.682;9.032;2023-05-21T12:42:26;7.15;;;6.45;;
13469;SDS011;6807;48.682;9.032;2023-05-21T12:44:55;10.10;;;6.93;;
13469;SDS011;6807;48.682;9.032;2023-05-21T12:47:23;8.68;;;7.00;;
13469;SDS011;6807;48.682;9.032;2023-05-21T12:49:52;7.25;;;6.55;;
13469;SDS011;6807;48.682;9.032;2023-05-21T12:52:22;8.80;;;7.07;;
13469;SDS011;6807;48.682;9.032;2023-05-21T12:54:50;7.55;;;6.45;;
13469;SDS011;6807;48.682;9.032;2023-05-21T12:57:19;7.80;;;7.00;;
13469;SDS011;6807;48.682;9.032;2023-05-21T12:59:49;7.85;;;6.80;;
13469;SDS011;6807;48.682;9.032;2023-05-21T13:02:20;8.43;;;7.40;;
13469;SDS011;6807;48.682;9.032;2023-05-21T13:04:52;7.60;;;6.90;;
13469;SDS011;6807;48.682;9.032;2023-05-21T13:07:20;7.18;;;6.47;;
13469;SDS011;6807;48.682;9.032;2023-05-21T13:09:48;7.72;;;6.68;;
13469;SDS011;6807;48.682;9.032;2023-05-21T13:12:18;7.80;;;6.40;;
13469;SDS011;6807;48.682;9.032;2023-05-21T13:14:47;7.03;;;6.32;;
13469;SDS011;6807;48.682;9.032;2023-05-21T13:17:15;7.70;;;6.90;;
13469;SDS011;6807;48.682;9.032;2023-05-21T13:19:45;7.57;;;6.80;;
13469;SDS011;6807;48.682;9.032;2023-05-21T13:22:29;6.85;;;6.15;;
13469;SDS011;6807;48.682;9.032;2023-05-21T13:24:56;7.25;;;6.55;;
13469;SDS011;6807;48.682;9.032;2023-05-21T13:27:25;7.63;;;6.40;;
13469;SDS011;6807;48.682;9.032;2023-05-21T13:29:52;7.03;;;6.38;;
13469;SDS011;6807;48.682;9.032;2023-05-21T13:32:20;7.32;;;6.63;;
13469;SDS011;6807;48.682;9.032;2023-05-21T13:34:48;7.03;;;6.32;;
13469;SDS011;6807;48.682;9.032;2023-05-21T13:37:15;7.35;;;6.20;;
13469;SDS011;6807;48.682;9.032;2023-05-21T13:39:42;9.30;;;6.82;;
13469;SDS011;6807;48.682;9.032;2023-05-21T13:42:09;6.40;;;5.78;;
13469;SDS011;6807;48.682;9.032;2023-05-21T13:44:37;8.38;;;5.43;;
13469;SDS011;6807;48.682;9.032;2023-05-21T13:47:05;6.25;;;5.75;;
13469;SDS011;6807;48.682;9.032;2023-05-21T13:49:33;6.57;;;5.80;;
13469;SDS011;6807;48.682;9.032;2023-05-21T13:52:00;7.78;;;6.72;;
13469;SDS011;6807;48.682;9.032;2023-05-21T13:54:27;6.63;;;6.03;;
13469;SDS011;6807;48.682;9.032;2023-05-21T13:56:55;6.78;;;5.40;;
13469;SDS011;6807;48.682;9.032;2023-05-21T13:59:22;6.65;;;5.72;;
13469;SDS011;6807;48.682;9.032;2023-05-21T14:01:51;6.43;;;5.30;;
13469;SDS011;6807;48.682;9.032;2023-05-21T14:04:19;6.88;;;5.60;;
13469;SDS011;6807;48.682;9.032;2023-05-21T14:06:46;5.90;;;5.30;;
13469;SDS011;6807;48.682;9.032;2023-05-21T14:09:13;6.53;;;5.88;;
13469;SDS011;6807;48.682;9.032;2023-05-21T14:11:41;6.65;;;5.93;;
13469;SDS011;6807;48.682;9.032;2023-05-21T14:14:08;5.97;;;5.38;;
13469;SDS011;6807;48.682;9.032;2023-05-21T14:16:35;8.15;;;5.47;;
13469;SDS011;6807;48.682;9.032;2023-05-21T14:19:04;6.20;;;5.70;;
13469;SDS011;6807;48.682;9.032;2023-05-21T14:21:31;8.98;;;8.13;;
13469;SDS011;6807;48.682;9.032;2023-05-21T14:23:58;9.27;;;8.38;;
13469;SDS011;6807;48.682;9.032;2023-05-21T14:26:25;7.35;;;5.93;;
13469;SDS011;6807;48.682;9.032;2023-05-21T14:28:52;5.45;;;4.85;;
13469;SDS011;6807;48.682;9.032;2023-05-21T14:31:19;5.68;;;5.10;;
13469;SDS011;6807;48.682;9.032;2023-05-21T14:33:47;5.40;;;4.90;;
13469;SDS011;6807;48.682;9.032;2023-05-21T14:36:16;6.80;;;5.30;;
13469;SDS011;6807;48.682;9.032;2023-05-21T14:38:43;6.32;;;5.30;;
13469;SDS011;6807;48.682;9.032;2023-05-21T14:41:11;5.43;;;4.93;;
13469;SDS011;6807;48.682;9.032;2023-05-21T14:43:38;7.28;;;5.05;;
13469;SDS011;6807;48.682;9.032;2023-05-21T14:46:05;5.72;;;5.07;;
13469;SDS011;6807;48.682;9.032;2023-05-21T14:48:33;5.20;;;4.70;;
13469;SDS011;6807;48.682;9.032;2023-05-21T14:51:00;5.50;;;5.00;;
13469;SDS011;6807;48.682;9.032;2023-05-21T14:53:28;5.78;;;5.20;;
13469;SDS011;6807;48.682;9.032;2023-05-21T14:55:56;6.57;;;5.00;;
13469;SDS011;6807;48.682;9.032;2023-05-21T14:58:23;6.80;;;5.93;;
13469;SDS011;6807;48.682;9.032;2023-05-21T15:00:50;5.97;;;5.38;;
13469;SDS011;6807;48.682;9.032;2023-05-21T15:03:17;6.88;;;5.20;;
13469;SDS011;6807;48.682;9.032;2023-05-21T15:05:44;5.63;;;5.10;;